sensor_id;sensor_type;location;lat;lon;timestamp;pressure;altitude;pressure_sealevel;temperature;humidity
33697;BME280;20031;43.416;23.232;2023-02-15T00:01:50;101521.75;;;-0.29;81.70
33697;BME280;20031;43.416;23.232;2023-02-15T00:04:18;101524.28;;;-0.27;82.18
33697;BME280;20031;43.416;23.232;2023-02-15T00:06:44;101525.19;;;-0.28;81.79
33697;BME280;20031;43.416;23.232;2023-02-15T00:09:10;101532.78;;;-0.27;82.41
33697;BME280;20031;43.416;23.232;2023-02-15T00:11:36;101521.00;;;-0.31;81.69
33697;BME280;20031;43.416;23.232;2023-02-15T00:14:20;101539.69;;;-0.29;82.46
33697;BME280;20031;43.416;23.232;2023-02-15T00:16:47;101532.16;;;-0.33;82.25
33697;BME280;20031;43.416;23.232;2023-02-15T00:19:15;101531.34;;;-0.34;82.04
33697;BME280;20031;43.416;23.232;2023-02-15T00:21:41;101531.47;;;-0.37;82.15
33697;BME280;20031;43.416;23.232;2023-02-15T00:24:09;101536.69;;;-0.40;82.43
33697;BME280;20031;43.416;23.232;2023-02-15T00:26:35;101535.59;;;-0.34;82.17
33697;BME280;20031;43.416;23.232;2023-02-15T00:29:01;101541.47;;;-0.31;82.45
33697;BME280;20031;43.416;23.232;2023-02-15T00:31:28;101540.59;;;-0.30;82.73
33697;BME280;20031;43.416;23.232;2023-02-15T00:33:56;101538.78;;;-0.28;82.83
33697;BME280;20031;43.416;23.232;2023-02-15T00:36:25;101538.75;;;-0.26;82.20
33697;BME280;20031;43.416;23.232;2023-02-15T00:38:51;101531.13;;;-0.28;82.54
33697;BME280;20031;43.416;23.232;2023-02-15T00:41:16;101532.78;;;-0.27;82.55
33697;BME280;20031;43.416;23.232;2023-02-15T00:43:42;101535.34;;;-0.27;82.83
33697;BME280;20031;43.416;23.232;2023-02-15T00:46:07;101543.75;;;-0.23;82.53
33697;BME280;20031;43.416;23.232;2023-02-15T00:48:32;101542.69;;;-0.18;83.19
33697;BME280;20031;43.416;23.232;2023-02-15T00:50:59;101548.41;;;-0.11;82.74
33697;BME280;20031;43.416;23.232;2023-02-15T00:53:26;101549.91;;;-0.06;82.62
33697;BME280;20031;43.416;23.232;2023-02-15T00:55:52;101548.91;;;-0.02;82.82
33697;BME280;20031;43.416;23.232;2023-02-15T00:58:17;101538.50;;;0.02;83.13
33697;BME280;20031;43.416;23.232;2023-02-15T01:00:45;101538.50;;;0.02;83.01
33697;BME280;20031;43.416;23.232;2023-02-15T01:03:11;101538.69;;;-0.02;82.81
33697;BME280;20031;43.416;23.232;2023-02-15T01:05:38;101536.13;;;-0.02;82.58
33697;BME280;20031;43.416;23.232;2023-02-15T01:08:04;101537.75;;;0.00;83.27
33697;BME280;20031;43.416;23.232;2023-02-15T01:10:29;101536.69;;;0.06;82.53
33697;BME280;20031;43.416;23.232;2023-02-15T01:12:56;101535.66;;;0.10;82.91
33697;BME280;20031;43.416;23.232;2023-02-15T01:15:23;101515.09;;;0.13;83.03
33697;BME280;20031;43.416;23.232;2023-02-15T01:17:48;101509.78;;;0.17;82.97
33697;BME280;20031;43.416;23.232;2023-02-15T01:20:25;101520.72;;;0.21;83.06
33697;BME280;20031;43.416;23.232;2023-02-15T01:22:51;101512.16;;;0.22;82.46
33697;BME280;20031;43.416;23.232;2023-02-15T01:25:20;101516.47;;;0.21;82.34
33697;BME280;20031;43.416;23.232;2023-02-15T01:27:46;101508.78;;;0.21;82.80
33697;BME280;20031;43.416;23.232;2023-02-15T01:30:12;101516.41;;;0.23;82.37
33697;BME280;20031;43.416;23.232;2023-02-15T01:32:38;101500.97;;;0.24;82.22
33697;BME280;20031;43.416;23.232;2023-02-15T01:35:04;101507.81;;;0.24;81.83
33697;BME280;20031;43.416;23.232;2023-02-15T01:37:31;101506.97;;;0.23;82.22
33697;BME280;20031;43.416;23.232;2023-02-15T01:39:57;101508.72;;;0.23;82.30
33697;BME280;20031;43.416;23.232;2023-02-15T01:42:23;101500.13;;;0.24;81.62
33697;BME280;20031;43.416;23.232;2023-02-15T01:44:55;101505.31;;;0.22;81.54
33697;BME280;20031;43.416;23.232;2023-02-15T01:47:43;101508.66;;;0.24;82.22
33697;BME280;20031;43.416;23.232;2023-02-15T01:52:48;101501.84;;;0.23;82.44
33697;BME280;20031;43.416;23.232;2023-02-15T01:55:14;101513.84;;;0.23;82.09
33697;BME280;20031;43.416;23.232;2023-02-15T01:57:40;101514.72;;;0.22;82.31
33697;BME280;20031;43.416;23.232;2023-02-15T02:00:08;101519.06;;;0.20;82.04
33697;BME280;20031;43.416;23.232;2023-02-15T02:02:34;101517.53;;;0.16;82.83
33697;BME280;20031;43.416;23.232;2023-02-15T02:05:01;101515.84;;;0.15;82.37
33697;BME280;20031;43.416;23.232;2023-02-15T02:07:35;101533.88;;;0.12;82.55
33697;BME280;20031;43.416;23.232;2023-02-15T02:10:03;101523.75;;;0.09;82.27
33697;BME280;20031;43.416;23.232;2023-02-15T02:12:29;101522.91;;;0.08;82.47
33697;BME280;20031;43.416;23.232;2023-02-15T02:14:55;101525.53;;;0.07;82.42
33697;BME280;20031;43.416;23.232;2023-02-15T02:34:29;101524.75;;;0.05;83.15
33697;BME280;20031;43.416;23.232;2023-02-15T02:37:02;101525.59;;;0.05;82.95
33697;BME280;20031;43.416;23.232;2023-02-15T02:42:15;101523.94;;;0.04;83.18
33697;BME280;20031;43.416;23.232;2023-02-15T02:44:49;101535.06;;;0.03;83.63
33697;BME280;20031;43.416;23.232;2023-02-15T02:47:43;101524.88;;;0.02;83.76
33697;BME280;20031;43.416;23.232;2023-02-15T02:50:18;101524.88;;;0.02;83.68
33697;BME280;20031;43.416;23.232;2023-02-15T02:52:45;101528.22;;;0.04;83.49
33697;BME280;20031;43.416;23.232;2023-02-15T02:58:05;101528.31;;;0.01;83.51
33697;BME280;20031;43.416;23.232;2023-02-15T03:00:37;101534.28;;;0.01;83.42
33697;BME280;20031;43.416;23.232;2023-02-15T03:03:09;101531.75;;;0.01;83.73
33697;BME280;20031;43.416;23.232;2023-02-15T03:05:40;101532.56;;;0.02;83.45
33697;BME280;20031;43.416;23.232;2023-02-15T03:08:07;101533.44;;;0.01;84.17
33697;BME280;20031;43.416;23.232;2023-02-15T03:10:35;101538.44;;;0.04;83.52
33697;BME280;20031;43.416;23.232;2023-02-15T03:13:02;101546.97;;;0.04;84.03
33697;BME280;20031;43.416;23.232;2023-02-15T03:15:36;101555.59;;;0.02;83.81
33697;BME280;20031;43.416;23.232;2023-02-15T03:18:25;101560.72;;;0.02;83.98
33697;BME280;20031;43.416;23.232;2023-02-15T03:20:52;101558.22;;;0.00;83.63
33697;BME280;20031;43.416;23.232;2023-02-15T03:23:24;101554.88;;;-0.02;83.94
33697;BME280;20031;43.416;23.232;2023-02-15T03:25:52;101552.34;;;-0.03;84.21
33697;BME280;20031;43.416;23.232;2023-02-15T03:28:27;101560.03;;;-0.03;83.91
33697;BME280;20031;43.416;23.232;2023-02-15T03:30:56;101565.22;;;-0.04;84.38
33697;BME280;20031;43.416;23.232;2023-02-15T03:33:26;101564.41;;;-0.05;84.35
33697;BME280;20031;43.416;23.232;2023-02-15T03:35:58;101560.28;;;-0.09;83.90
33697;BME280;20031;43.416;23.232;2023-02-15T03:38:44;101558.75;;;-0.14;83.96
33697;BME280;20031;43.416;23.232;2023-02-15T03:41:12;101559.84;;;-0.20;83.95
33697;BME280;20031;43.416;23.232;2023-02-15T03:43:56;101558.16;;;-0.21;84.28
33697;BME280;20031;43.416;23.232;2023-02-15T03:49:04;101572.78;;;-0.24;84.37
33697;BME280;20031;43.416;23.232;2023-02-15T03:51:35;101574.56;;;-0.26;84.80
33697;BME280;20031;43.416;23.232;2023-02-15T03:54:22;101566.06;;;-0.27;84.44
33697;BME280;20031;43.416;23.232;2023-02-15T03:57:10;101568.56;;;-0.25;84.64
33697;BME280;20031;43.416;23.232;2023-02-15T03:59:55;101569.44;;;-0.26;84.30
33697;BME280;20031;43.416;23.232;2023-02-15T04:02:50;101577.94;;;-0.26;84.56
33697;BME280;20031;43.416;23.232;2023-02-15T04:05:17;101567.81;;;-0.29;84.53
33697;BME280;20031;43.416;23.232;2023-02-15T04:07:43;101562.03;;;-0.34;83.88
33697;BME280;20031;43.416;23.232;2023-02-15T04:10:08;101565.75;;;-0.42;83.88
33697;BME280;20031;43.416;23.232;2023-02-15T04:12:53;101559.19;;;-0.49;84.26
33697;BME280;20031;43.416;23.232;2023-02-15T04:15:18;101568.59;;;-0.50;84.50
33697;BME280;20031;43.416;23.232;2023-02-15T04:18:03;101568.44;;;-0.45;84.63
33697;BME280;20031;43.416;23.232;2023-02-15T04:20:28;101581.00;;;-0.39;84.52
33697;BME280;20031;43.416;23.232;2023-02-15T04:23:12;101572.34;;;-0.35;84.37
33697;BME280;20031;43.416;23.232;2023-02-15T04:25:56;101568.81;;;-0.33;84.71
33697;BME280;20031;43.416;23.232;2023-02-15T04:28:21;101573.00;;;-0.30;84.77
33697;BME280;20031;43.416;23.232;2023-02-15T04:30:47;101577.28;;;-0.31;84.39
33697;BME280;20031;43.416;23.232;2023-02-15T04:33:12;101584.09;;;-0.30;84.42
33697;BME280;20031;43.416;23.232;2023-02-15T04:35:38;101574.69;;;-0.29;84.74
33697;BME280;20031;43.416;23.232;2023-02-15T04:38:03;101575.50;;;-0.29;84.35
33697;BME280;20031;43.416;23.232;2023-02-15T04:40:29;101586.59;;;-0.28;84.50
33697;BME280;20031;43.416;23.232;2023-02-15T04:42:54;101578.97;;;-0.30;84.61
33697;BME280;20031;43.416;23.232;2023-02-15T04:45:20;101580.63;;;-0.29;84.47
33697;BME280;20031;43.416;23.232;2023-02-15T04:47:45;101585.69;;;-0.27;84.73
33697;BME280;20031;43.416;23.232;2023-02-15T04:50:11;101575.50;;;-0.29;84.78
33697;BME280;20031;43.416;23.232;2023-02-15T04:52:36;101582.34;;;-0.29;84.95
33697;BME280;20031;43.416;23.232;2023-02-15T04:55:02;101578.06;;;-0.29;84.61
33697;BME280;20031;43.416;23.232;2023-02-15T04:57:27;101581.47;;;-0.28;84.85
33697;BME280;20031;43.416;23.232;2023-02-15T04:59:53;101579.97;;;-0.34;84.30
33697;BME280;20031;43.416;23.232;2023-02-15T05:02:18;101574.94;;;-0.37;84.83
33697;BME280;20031;43.416;23.232;2023-02-15T05:04:44;101589.50;;;-0.39;84.30
33697;BME280;20031;43.416;23.232;2023-02-15T05:07:09;101588.84;;;-0.44;84.01
33697;BME280;20031;43.416;23.232;2023-02-15T05:09:35;101592.34;;;-0.46;84.28
33697;BME280;20031;43.416;23.232;2023-02-15T05:12:00;101580.31;;;-0.44;84.65
33697;BME280;20031;43.416;23.232;2023-02-15T05:14:26;101587.84;;;-0.40;84.99
33697;BME280;20031;43.416;23.232;2023-02-15T05:16:51;101587.84;;;-0.40;84.79
33697;BME280;20031;43.416;23.232;2023-02-15T05:19:19;101592.84;;;-0.37;84.52
33697;BME280;20031;43.416;23.232;2023-02-15T05:21:44;101589.41;;;-0.36;84.67
33697;BME280;20031;43.416;23.232;2023-02-15T05:24:10;101599.63;;;-0.36;84.80
33697;BME280;20031;43.416;23.232;2023-02-15T05:26:54;101591.13;;;-0.36;84.83
33697;BME280;20031;43.416;23.232;2023-02-15T05:29:37;101603.91;;;-0.36;85.25
33697;BME280;20031;43.416;23.232;2023-02-15T05:32:03;101594.63;;;-0.39;84.78
33697;BME280;20031;43.416;23.232;2023-02-15T05:34:29;101603.03;;;-0.35;85.38
33697;BME280;20031;43.416;23.232;2023-02-15T05:36:54;101608.94;;;-0.33;85.82
33697;BME280;20031;43.416;23.232;2023-02-15T05:39:20;101600.38;;;-0.32;85.78
33697;BME280;20031;43.416;23.232;2023-02-15T05:41:45;101597.75;;;-0.31;85.87
33697;BME280;20031;43.416;23.232;2023-02-15T05:44:11;101601.03;;;-0.27;85.74
33697;BME280;20031;43.416;23.232;2023-02-15T05:46:36;101604.34;;;-0.24;85.74
33697;BME280;20031;43.416;23.232;2023-02-15T05:49:02;101608.47;;;-0.20;85.96
33697;BME280;20031;43.416;23.232;2023-02-15T05:51:27;101606.50;;;-0.13;86.05
33697;BME280;20031;43.416;23.232;2023-02-15T05:53:52;101611.41;;;-0.07;86.58
33697;BME280;20031;43.416;23.232;2023-02-15T05:56:18;101617.16;;;-0.01;86.30
33697;BME280;20031;43.416;23.232;2023-02-15T05:58:43;101617.63;;;0.08;85.98
33697;BME280;20031;43.416;23.232;2023-02-15T06:01:17;101619.03;;;0.17;85.56
33697;BME280;20031;43.416;23.232;2023-02-15T06:03:44;101611.97;;;0.23;86.10
33697;BME280;20031;43.416;23.232;2023-02-15T06:06:10;101612.50;;;0.33;85.40
33697;BME280;20031;43.416;23.232;2023-02-15T06:08:37;101616.47;;;0.40;85.72
33697;BME280;20031;43.416;23.232;2023-02-15T06:11:03;101614.53;;;0.46;85.52
33697;BME280;20031;43.416;23.232;2023-02-15T06:13:28;101616.59;;;0.58;85.44
33697;BME280;20031;43.416;23.232;2023-02-15T06:15:54;101614.31;;;0.73;84.94
33697;BME280;20031;43.416;23.232;2023-02-15T06:18:19;101618.19;;;0.83;84.72
33697;BME280;20031;43.416;23.232;2023-02-15T06:20:45;101614.28;;;0.95;84.07
33697;BME280;20031;43.416;23.232;2023-02-15T06:23:11;101612.59;;;0.95;84.00
33697;BME280;20031;43.416;23.232;2023-02-15T06:25:36;101617.03;;;1.11;83.58
33697;BME280;20031;43.416;23.232;2023-02-15T06:28:02;101621.44;;;1.29;83.42
33697;BME280;20031;43.416;23.232;2023-02-15T06:30:27;101612.19;;;1.45;83.23
33697;BME280;20031;43.416;23.232;2023-02-15T06:32:53;101616.25;;;1.51;82.26
33697;BME280;20031;43.416;23.232;2023-02-15T06:35:18;101622.53;;;1.63;81.63
33697;BME280;20031;43.416;23.232;2023-02-15T06:37:45;101610.97;;;1.73;81.35
33697;BME280;20031;43.416;23.232;2023-02-15T06:40:11;101606.22;;;1.84;80.96
33697;BME280;20031;43.416;23.232;2023-02-15T06:42:36;101610.69;;;1.99;80.88
33697;BME280;20031;43.416;23.232;2023-02-15T06:45:02;101612.44;;;2.17;80.29
33697;BME280;20031;43.416;23.232;2023-02-15T06:47:27;101611.88;;;2.29;79.51
33697;BME280;20031;43.416;23.232;2023-02-15T06:49:53;101611.06;;;2.47;79.20
33697;BME280;20031;43.416;23.232;2023-02-15T06:52:18;101607.63;;;2.64;78.49
33697;BME280;20031;43.416;23.232;2023-02-15T06:54:44;101609.03;;;2.71;77.69
33697;BME280;20031;43.416;23.232;2023-02-15T06:57:09;101599.81;;;2.84;77.02
33697;BME280;20031;43.416;23.232;2023-02-15T06:59:35;101609.41;;;2.99;76.71
33697;BME280;20031;43.416;23.232;2023-02-15T07:02:00;101606.16;;;3.12;76.15
33697;BME280;20031;43.416;23.232;2023-02-15T07:04:25;101611.25;;;3.31;75.09
33697;BME280;20031;43.416;23.232;2023-02-15T07:06:53;101612.91;;;3.32;73.99
33697;BME280;20031;43.416;23.232;2023-02-15T07:09:19;101613.75;;;3.32;73.51
33697;BME280;20031;43.416;23.232;2023-02-15T07:11:44;101615.34;;;3.35;73.30
33697;BME280;20031;43.416;23.232;2023-02-15T07:14:28;101615.50;;;3.49;72.87
33697;BME280;20031;43.416;23.232;2023-02-15T07:16:54;101616.84;;;3.55;72.32
33697;BME280;20031;43.416;23.232;2023-02-15T07:19:19;101615.34;;;3.68;72.55
33697;BME280;20031;43.416;23.232;2023-02-15T07:21:45;101614.38;;;3.86;72.88
33697;BME280;20031;43.416;23.232;2023-02-15T07:24:10;101609.09;;;4.04;72.42
33697;BME280;20031;43.416;23.232;2023-02-15T07:26:36;101612.06;;;4.14;71.52
33697;BME280;20031;43.416;23.232;2023-02-15T07:29:01;101614.38;;;4.18;71.32
33697;BME280;20031;43.416;23.232;2023-02-15T07:31:27;101611.06;;;4.32;71.21
33697;BME280;20031;43.416;23.232;2023-02-15T07:33:52;101610.66;;;4.54;70.90
33697;BME280;20031;43.416;23.232;2023-02-15T07:36:18;101603.19;;;4.65;70.54
33697;BME280;20031;43.416;23.232;2023-02-15T07:38:43;101601.34;;;4.83;69.71
33697;BME280;20031;43.416;23.232;2023-02-15T07:41:12;101602.09;;;5.00;69.57
33697;BME280;20031;43.416;23.232;2023-02-15T07:43:40;101594.38;;;5.14;69.13
33697;BME280;20031;43.416;23.232;2023-02-15T07:46:09;101591.63;;;5.46;68.83
33697;BME280;20031;43.416;23.232;2023-02-15T07:48:35;101597.38;;;5.65;67.53
33697;BME280;20031;43.416;23.232;2023-02-15T07:51:03;101596.50;;;5.80;67.47
33697;BME280;20031;43.416;23.232;2023-02-15T07:53:29;101597.16;;;5.97;66.93
33697;BME280;20031;43.416;23.232;2023-02-15T07:55:59;101595.16;;;6.02;65.79
33697;BME280;20031;43.416;23.232;2023-02-15T07:58:25;101595.13;;;6.30;66.38
33697;BME280;20031;43.416;23.232;2023-02-15T08:01:10;101581.28;;;6.57;65.22
33697;BME280;20031;43.416;23.232;2023-02-15T08:03:36;101583.75;;;6.72;64.46
33697;BME280;20031;43.416;23.232;2023-02-15T08:06:01;101579.34;;;6.87;63.58
33697;BME280;20031;43.416;23.232;2023-02-15T08:08:27;101582.69;;;6.89;63.49
33697;BME280;20031;43.416;23.232;2023-02-15T08:11:15;101574.97;;;7.01;62.95
33697;BME280;20031;43.416;23.232;2023-02-15T08:16:54;101573.81;;;7.56;61.77
33697;BME280;20031;43.416;23.232;2023-02-15T08:19:26;101584.31;;;7.79;61.32
33697;BME280;20031;43.416;23.232;2023-02-15T08:22:00;101576.19;;;8.09;60.97
33697;BME280;20031;43.416;23.232;2023-02-15T08:24:31;101581.78;;;8.40;60.31
33697;BME280;20031;43.416;23.232;2023-02-15T08:26:57;101578.91;;;8.67;59.24
33697;BME280;20031;43.416;23.232;2023-02-15T08:29:26;101574.09;;;8.97;58.92
33697;BME280;20031;43.416;23.232;2023-02-15T08:32:03;101570.72;;;9.08;57.92
33697;BME280;20031;43.416;23.232;2023-02-15T08:34:31;101573.75;;;9.36;57.72
33697;BME280;20031;43.416;23.232;2023-02-15T08:36:57;101572.28;;;9.55;56.16
33697;BME280;20031;43.416;23.232;2023-02-15T08:39:22;101576.44;;;9.58;54.64
33697;BME280;20031;43.416;23.232;2023-02-15T08:41:48;101571.81;;;9.61;54.02
33697;BME280;20031;43.416;23.232;2023-02-15T08:44:15;101575.66;;;9.79;54.37
33697;BME280;20031;43.416;23.232;2023-02-15T08:46:43;101570.31;;;9.91;54.04
33697;BME280;20031;43.416;23.232;2023-02-15T08:49:11;101565.28;;;10.01;53.31
33697;BME280;20031;43.416;23.232;2023-02-15T08:51:38;101568.25;;;10.07;52.26
33697;BME280;20031;43.416;23.232;2023-02-15T08:54:06;101572.75;;;10.16;52.74
33697;BME280;20031;43.416;23.232;2023-02-15T08:56:35;101573.31;;;10.30;52.00
33697;BME280;20031;43.416;23.232;2023-02-15T08:59:01;101572.72;;;10.49;51.64
33697;BME280;20031;43.416;23.232;2023-02-15T09:01:29;101573.38;;;10.62;50.67
33697;BME280;20031;43.416;23.232;2023-02-15T09:04:03;101571.00;;;10.69;50.59
33697;BME280;20031;43.416;23.232;2023-02-15T09:06:30;101569.78;;;10.84;49.78
33697;BME280;20031;43.416;23.232;2023-02-15T09:08:57;101575.81;;;10.85;49.53
33697;BME280;20031;43.416;23.232;2023-02-15T09:11:25;101570.59;;;10.85;48.86
33697;BME280;20031;43.416;23.232;2023-02-15T09:13:58;101570.84;;;10.82;49.07
33697;BME280;20031;43.416;23.232;2023-02-15T09:16:26;101564.72;;;10.72;48.95
33697;BME280;20031;43.416;23.232;2023-02-15T09:18:52;101561.16;;;10.73;49.32
33697;BME280;20031;43.416;23.232;2023-02-15T09:21:20;101568.81;;;10.96;49.27
33697;BME280;20031;43.416;23.232;2023-02-15T09:23:47;101564.00;;;11.12;49.22
33697;BME280;20031;43.416;23.232;2023-02-15T09:26:18;101566.78;;;11.20;48.28
33697;BME280;20031;43.416;23.232;2023-02-15T09:28:44;101560.50;;;11.22;48.60
33697;BME280;20031;43.416;23.232;2023-02-15T09:31:15;101558.72;;;11.23;48.24
33697;BME280;20031;43.416;23.232;2023-02-15T09:33:42;101557.50;;;11.27;48.50
33697;BME280;20031;43.416;23.232;2023-02-15T09:36:15;101560.25;;;11.46;47.93
33697;BME280;20031;43.416;23.232;2023-02-15T09:38:41;101563.91;;;11.54;47.45
33697;BME280;20031;43.416;23.232;2023-02-15T09:44:35;101558.94;;;11.72;47.31
33697;BME280;20031;43.416;23.232;2023-02-15T09:55:31;101548.00;;;11.77;46.54
33697;BME280;20031;43.416;23.232;2023-02-15T10:01:23;101531.91;;;12.12;46.07
33697;BME280;20031;43.416;23.232;2023-02-15T10:06:31;101527.22;;;12.06;45.33
33697;BME280;20031;43.416;23.232;2023-02-15T10:28:30;101503.41;;;12.38;45.19
33697;BME280;20031;43.416;23.232;2023-02-15T10:33:42;101507.41;;;12.52;44.50
33697;BME280;20031;43.416;23.232;2023-02-15T10:39:27;101481.69;;;12.38;44.54
33697;BME280;20031;43.416;23.232;2023-02-15T10:41:58;101486.91;;;12.47;44.88
33697;BME280;20031;43.416;23.232;2023-02-15T10:49:57;101465.78;;;12.88;43.80
33697;BME280;20031;43.416;23.232;2023-02-15T10:55:18;101463.59;;;12.83;43.51
33697;BME280;20031;43.416;23.232;2023-02-15T11:00:50;101455.97;;;12.71;43.21
33697;BME280;20031;43.416;23.232;2023-02-15T11:06:06;101449.78;;;12.81;43.62
33697;BME280;20031;43.416;23.232;2023-02-15T11:08:38;101446.91;;;12.84;43.43
33697;BME280;20031;43.416;23.232;2023-02-15T11:11:09;101448.44;;;12.96;43.07
33697;BME280;20031;43.416;23.232;2023-02-15T11:13:39;101442.09;;;12.89;42.82
33697;BME280;20031;43.416;23.232;2023-02-15T11:16:20;101445.97;;;12.85;42.92
33697;BME280;20031;43.416;23.232;2023-02-15T11:21:33;101445.13;;;12.85;43.38
33697;BME280;20031;43.416;23.232;2023-02-15T11:24:12;101431.75;;;12.97;42.80
33697;BME280;20031;43.416;23.232;2023-02-15T11:26:43;101425.00;;;13.04;42.44
33697;BME280;20031;43.416;23.232;2023-02-15T11:31:55;101429.69;;;13.10;41.96
33697;BME280;20031;43.416;23.232;2023-02-15T11:34:50;101423.63;;;12.81;42.69
33697;BME280;20031;43.416;23.232;2023-02-15T11:37:20;101423.09;;;12.87;43.03
33697;BME280;20031;43.416;23.232;2023-02-15T11:39:51;101415.69;;;12.92;42.96
33697;BME280;20031;43.416;23.232;2023-02-15T11:42:21;101410.16;;;12.95;42.52
33697;BME280;20031;43.416;23.232;2023-02-15T11:45:14;101403.28;;;12.94;42.78
33697;BME280;20031;43.416;23.232;2023-02-15T11:47:42;101395.84;;;12.99;42.73
33697;BME280;20031;43.416;23.232;2023-02-15T11:50:24;101391.16;;;13.03;42.62
33697;BME280;20031;43.416;23.232;2023-02-15T11:52:57;101387.03;;;13.00;43.04
33697;BME280;20031;43.416;23.232;2023-02-15T11:55:26;101382.06;;;13.07;42.78
33697;BME280;20031;43.416;23.232;2023-02-15T11:58:30;101375.44;;;13.03;43.03
33697;BME280;20031;43.416;23.232;2023-02-15T12:04:19;101381.53;;;12.94;43.23
33697;BME280;20031;43.416;23.232;2023-02-15T12:06:51;101375.63;;;12.73;42.95
33697;BME280;20031;43.416;23.232;2023-02-15T12:11:49;101369.31;;;12.57;43.87
33697;BME280;20031;43.416;23.232;2023-02-15T12:14:15;101367.53;;;12.57;44.43
33697;BME280;20031;43.416;23.232;2023-02-15T12:16:45;101366.84;;;12.55;44.05
33697;BME280;20031;43.416;23.232;2023-02-15T12:19:36;101360.25;;;12.51;44.54
33697;BME280;20031;43.416;23.232;2023-02-15T12:22:03;101350.78;;;12.41;44.64
33697;BME280;20031;43.416;23.232;2023-02-15T12:24:38;101354.47;;;12.38;44.95
33697;BME280;20031;43.416;23.232;2023-02-15T12:27:21;101344.31;;;12.26;44.85
33697;BME280;20031;43.416;23.232;2023-02-15T12:29:51;101340.75;;;12.08;44.54
33697;BME280;20031;43.416;23.232;2023-02-15T12:32:21;101345.53;;;12.03;45.17
33697;BME280;20031;43.416;23.232;2023-02-15T12:34:48;101342.38;;;11.90;44.91
33697;BME280;20031;43.416;23.232;2023-02-15T12:37:21;101345.78;;;11.81;44.83
33697;BME280;20031;43.416;23.232;2023-02-15T12:40:21;101343.31;;;11.80;45.60
33697;BME280;20031;43.416;23.232;2023-02-15T12:42:47;101341.78;;;11.77;45.92
33697;BME280;20031;43.416;23.232;2023-02-15T12:45:27;101333.69;;;11.80;46.29
33697;BME280;20031;43.416;23.232;2023-02-15T12:50:38;101342.34;;;11.72;45.82
33697;BME280;20031;43.416;23.232;2023-02-15T12:53:15;101345.34;;;11.67;46.05
33697;BME280;20031;43.416;23.232;2023-02-15T12:55:57;101333.38;;;11.65;46.26
33697;BME280;20031;43.416;23.232;2023-02-15T12:58:25;101338.59;;;11.65;46.32
33697;BME280;20031;43.416;23.232;2023-02-15T13:03:27;101336.78;;;11.56;46.37
33697;BME280;20031;43.416;23.232;2023-02-15T13:05:54;101337.44;;;11.48;46.76
33697;BME280;20031;43.416;23.232;2023-02-15T13:08:32;101345.91;;;11.41;46.26
33697;BME280;20031;43.416;23.232;2023-02-15T13:13:32;101340.28;;;11.36;47.22
33697;BME280;20031;43.416;23.232;2023-02-15T13:16:07;101336.84;;;11.35;47.19
33697;BME280;20031;43.416;23.232;2023-02-15T13:18:54;101347.41;;;11.34;47.16
33697;BME280;20031;43.416;23.232;2023-02-15T13:21:22;101346.97;;;11.29;47.09
33697;BME280;20031;43.416;23.232;2023-02-15T13:24:05;101345.31;;;11.28;47.48
33697;BME280;20031;43.416;23.232;2023-02-15T13:26:32;101348.19;;;11.25;47.34
33697;BME280;20031;43.416;23.232;2023-02-15T13:29:11;101350.81;;;11.25;47.83
33697;BME280;20031;43.416;23.232;2023-02-15T13:31:41;101353.69;;;11.22;47.75
33697;BME280;20031;43.416;23.232;2023-02-15T13:37:03;101347.75;;;11.20;47.73
33697;BME280;20031;43.416;23.232;2023-02-15T13:52:50;101354.09;;;11.27;47.38
33697;BME280;20031;43.416;23.232;2023-02-15T13:55:30;101354.09;;;11.27;47.70
33697;BME280;20031;43.416;23.232;2023-02-15T14:17:18;101356.66;;;11.47;47.12
33697;BME280;20031;43.416;23.232;2023-02-15T14:20:01;101356.22;;;11.42;46.74
33697;BME280;20031;43.416;23.232;2023-02-15T14:25:17;101362.72;;;11.48;47.17
33697;BME280;20031;43.416;23.232;2023-02-15T14:30:25;101358.81;;;11.42;47.51
33697;BME280;20031;43.416;23.232;2023-02-15T14:32:59;101356.66;;;11.47;46.97
33697;BME280;20031;43.416;23.232;2023-02-15T14:35:29;101351.69;;;11.44;47.25
33697;BME280;20031;43.416;23.232;2023-02-15T14:38:09;101355.00;;;11.46;47.08
33697;BME280;20031;43.416;23.232;2023-02-15T14:40:56;101353.09;;;11.48;47.08
33697;BME280;20031;43.416;23.232;2023-02-15T14:44:08;101350.88;;;11.44;46.79
33697;BME280;20031;43.416;23.232;2023-02-15T15:02:03;101354.81;;;10.99;47.97
33697;BME280;20031;43.416;23.232;2023-02-15T15:04:38;101361.03;;;10.87;47.93
33697;BME280;20031;43.416;23.232;2023-02-15T15:07:17;101350.09;;;10.73;48.25
33697;BME280;20031;43.416;23.232;2023-02-15T15:09:48;101359.78;;;10.62;48.51
33697;BME280;20031;43.416;23.232;2023-02-15T15:14:48;101352.56;;;10.34;49.41
33697;BME280;20031;43.416;23.232;2023-02-15T15:20:00;101361.78;;;10.07;50.48
33697;BME280;20031;43.416;23.232;2023-02-15T15:22:28;101355.06;;;9.93;50.87
33697;BME280;20031;43.416;23.232;2023-02-15T15:25:51;101358.75;;;9.80;50.93
33697;BME280;20031;43.416;23.232;2023-02-15T15:27:52;101361.63;;;9.66;51.53
33697;BME280;20031;43.416;23.232;2023-02-15T15:41:47;101358.69;;;8.94;53.73
33697;BME280;20031;43.416;23.232;2023-02-15T15:44:40;101360.78;;;8.78;54.21
33697;BME280;20031;43.416;23.232;2023-02-15T15:50:18;101362.47;;;8.45;55.43
33697;BME280;20031;43.416;23.232;2023-02-15T15:52:50;101361.59;;;8.34;56.13
33697;BME280;20031;43.416;23.232;2023-02-15T15:55:18;101366.97;;;8.20;56.11
33697;BME280;20031;43.416;23.232;2023-02-15T15:57:47;101366.16;;;8.07;56.61
33697;BME280;20031;43.416;23.232;2023-02-15T16:00:53;101370.81;;;7.91;56.69
33697;BME280;20031;43.416;23.232;2023-02-15T16:03:25;101379.56;;;7.78;57.64